Flight Track Log - Related Links

Times and Time Zones

All times are in EDT time to prevent confusion due to time zone crossing. See the GGN7280 flight status page for this flight to view local times or setup timezone preferences in your user account.

Time Position Orientation Groundspeed Altitude Reporting Facility
EDT Latitude Longitude Course Direction KTS MPH feet Rate Location/Type
Thu 09:32:36 AM 43.6667 -79.5833 180° South 60 69 1,000  Level Toronto Center
Thu 09:33:36 AM 43.6167 -79.5833 180° South 170 196 2,600 1,850 Climbing Toronto Center
Thu 09:34:36 AM 43.5833 -79.5667 160° South 180 207 4,700 1,950 Climbing Toronto Center
Thu 09:35:36 AM 43.5667 -79.4667 103° East 210 242 6,500 1,700 Climbing Toronto Center
Thu 09:36:36 AM 43.5500 -79.4000 109° East 220 253 8,100 1,600 Climbing Toronto Center
Thu 09:37:36 AM 43.5333 -79.3167 105° East 230 265 9,700 1,550 Climbing Toronto Center
Thu 09:38:36 AM 43.5167 -79.2167 103° East 240 276 11,200 1,550 Climbing Toronto Center
Thu 09:39:36 AM 43.5167 -79.1333 90° East 240 276 12,800 1,550 Climbing Toronto Center
Thu 09:40:36 AM 43.5000 -79.0333 103° East 250 288 14,300 1,600 Climbing Toronto Center
Thu 09:41:36 AM 43.5000 -78.9500 90° East 240 276 16,000 1,500 Climbing Toronto Center
Thu 09:42:36 AM 43.4833 -78.8500 103° East 240 276 17,300 1,350 Climbing Toronto Center
Thu 09:43:36 AM 43.4667 -78.7667 105° East 250 288 18,700 1,350 Climbing Toronto Center
Thu 09:44:36 AM 43.4667 -78.6667 90° East 250 288 20,000 1,250 Climbing Toronto Center
Thu 09:45:36 AM 43.4500 -78.5833 105° East 250 288 21,200 1,084 Climbing Toronto Center
Thu 09:45:59 AM 43.4492 -78.5589 93° East 238 274 21,500 940 Climbing Cleveland Center
Thu 09:46:59 AM 43.4392 -78.4675 99° East 238 274 22,500 750 Climbing Cleveland Center
Thu 09:47:59 AM 43.4247 -78.3708 102° East 238 274 23,000 250 Climbing Cleveland Center
Thu 09:48:59 AM 43.4125 -78.2656 99° East 251 289 23,000  Level Cleveland Center
Thu 09:49:59 AM 43.3978 -78.1575 101° East 274 315 23,000  Level Cleveland Center
Thu 09:50:59 AM 43.3828 -78.0467 101° East 286 329 23,000  Level Cleveland Center
Thu 09:51:59 AM 43.3700 -77.9386 99° East 291 335 23,000  Level Cleveland Center
Thu 09:52:59 AM 43.3550 -77.8281 101° East 291 335 23,000  Level Cleveland Center
Thu 09:54:36 AM 43.3167 -77.6167 104° East 290 334 23,000  Level Toronto Center
Thu 09:54:59 AM 43.3244 -77.6097 33° Northeast 291 335 23,000  Level Cleveland Center
Thu 09:55:59 AM 43.3111 -77.4989 99° East 291 335 23,000  Level Cleveland Center
Thu 09:57:36 AM 43.2667 -77.3000 107° East 290 334 23,000  Level Toronto Center
Thu 09:58:36 AM 43.2500 -77.1833 101° East 290 334 23,000  Level Toronto Center
Thu 09:59:36 AM 43.2500 -77.0667 90° East 290 334 23,000  Level Toronto Center
Thu 10:00:36 AM 43.2333 -76.9833 105° East 290 334 23,000  Level Toronto Center
Thu 10:01:36 AM 43.2167 -76.8667 101° East 290 334 23,000  Level Toronto Center
Thu 10:02:36 AM 43.2000 -76.7500 101° East 290 334 23,000  Level Toronto Center
Thu 10:03:36 AM 43.1833 -76.6333 101° East 300 345 23,000  Level Toronto Center
Thu 10:04:36 AM 43.1667 -76.5167 101° East 290 334 23,000  Level Toronto Center
Thu 10:05:36 AM 43.1500 -76.4167 103° East 290 334 23,000  Level Toronto Center
Thu 10:06:51 AM 43.1469 -76.3308 93° East 284 327 23,000  Level Boston Center
Thu 10:07:51 AM 43.1403 -76.2164 95° East 284 327 23,000  Level Boston Center
Thu 10:08:51 AM 43.1356 -76.1022 93° East 294 338 23,000 -300 Level Boston Center
Thu 10:09:51 AM 43.1269 -75.9850 96° East 294 338 22,400 -850 Descending Boston Center
Thu 10:10:51 AM 43.1222 -75.8681 93° East 300 345 21,300 -1,100 Descending Boston Center
Thu 10:11:51 AM 43.1131 -75.7508 96° East 305 351 20,200 -1,100 Descending Boston Center
Thu 10:12:51 AM 43.1058 -75.6369 95° East 305 351 19,100 -1,200 Descending Boston Center
Thu 10:13:51 AM 43.0986 -75.5197 95° East 305 351 17,800 -1,200 Descending Boston Center
Thu 10:14:51 AM 43.0914 -75.4028 95° East 310 357 16,700 -1,100 Descending Boston Center
Thu 10:15:51 AM 43.0839 -75.2831 95° East 310 357 15,600 -1,100 Descending Boston Center
Thu 10:16:51 AM 43.0764 -75.1689 95° East 310 357 14,500 -1,190 Descending Boston Center
Thu 10:17:47 AM 43.0706 -75.0608 94° East 297 342 13,300 -1,370 Descending Boston Center
Thu 10:18:23 AM 43.0639 -74.9864 97° East 322 371 12,400 -1,026 Descending Boston Center
Thu 10:19:03 AM 43.0606 -74.9467 97° East 300 345 12,000 -1,180 Descending Boston Center
Thu 10:19:24 AM 43.0600 -74.8756 91° East 297 342 11,200 -1,000 Descending Boston Center
Thu 10:20:03 AM 43.0533 -74.7986 97° East 295 339 11,000 -197 Descending Boston Center
Thu 10:20:25 AM 43.0500 -74.7614 97° East 289 333 11,000  Level Boston Center
Thu 10:21:03 AM 43.0450 -74.6903 95° East 295 339 11,000  Level Boston Center
Thu 10:21:25 AM 43.0417 -74.6531 97° East 287 330 11,000  Level Boston Center
Thu 10:22:26 AM 43.0356 -74.5392 94° East 287 330 11,000  Level Boston Center
Thu 10:23:03 AM 43.0303 -74.4767 97° East 290 334 11,000  Level Boston Center
Thu 10:23:27 AM 43.0269 -74.4339 96° East 279 321 11,000 -917 Level Boston Center
Thu 10:24:15 AM 43.0175 -74.3711 102° East 285 328 9,900 -1,722 Descending Boston Center
Thu 10:25:15 AM 42.9986 -74.2514 102° East 285 328 7,900 -1,750 Descending Boston Center
Thu 10:26:15 AM 42.9775 -74.1344 104° East 285 328 6,400 -1,227 Descending Boston Center
Thu 10:27:27 AM 42.9622 -74.0403 102° East 285 328 5,200 -1,333 Descending Boston Center
Thu 10:28:30 AM 42.9431 -73.9178 102° East 241 277 3,400 -1,550 Descending Boston Center
Thu 10:29:27 AM 42.9150 -73.8406 116° Southeast 227 261 2,100 -718 Descending Boston Center
Thu 10:30:27 AM 42.8714 -73.8111 154° Southeast 186 214 2,000 -50 Descending Boston Center
Thu 10:31:27 AM 42.8367 -73.7622 134° Southeast 186 214 2,000 8,500 Level Boston Center
Thu 10:32:27 AM 42.7956 -73.7189 142° Southeast 186 214 19,000 17,000 Climbing Boston Center
Thu 10:34:00 AM 42.7491 -73.8020 North  Level Estimated
Thu 10:41:00 AM 42.7491 -73.8020 North  Level Estimated
Thu 10:42:00 AM 42.7491 -73.8020 North  Level Estimated

Login

Don't have an account? Register now (free) for customized features, flight alerts, and more!